Latest Weather Observations for Bankstown

IDN60901

Issued at 6:01 pm EDT Friday 20 October 2017 (issued every 10 minutes, with the page automatically refreshed every 10 minutes)

About weather observations | Map of Sydney area stations | Latest observations for Sydney area | Other Formats
Station Details ID: 066137 Name: BANKSTOWN AIRPORT AWS Lat: -33.92 Lon: 150.99 Height: 6.5 m
Data from the previous 72 hours. | See also: Recent months at Bankstown
Date/Time
EDT
Temp
°C
App
Temp
°C
Dew
Point
°C
Rel
Hum
%
Delta-T
°C
Wind Press
QNH
hPa
Press
MSL
hPa
Rain since
9am
mm
Dir  Spd
km/h
Gust
km/h
Spd
kts
Gust
kts
20/06:00pm 14.5 13.4 13.0 91 0.8 SSW 11 20 6 11 1022.4 1022.4 11.6
20/05:43pm 14.4 12.8 12.8 90 0.9 S 13 17 7 9 1022.1 1022.1 11.6
20/05:30pm 14.7 13.3 13.4 92 0.7 S 13 19 7 10 1022.0 1022.0 11.4
20/05:00pm 14.7 13.4 13.6 93 0.6 SSW 13 19 7 10 1021.9 1021.9 10.8
20/04:30pm 14.7 13.3 13.4 92 0.7 SSE 13 19 7 10 1021.4 1021.4 10.2
20/04:23pm 14.5 13.9 13.4 93 0.6 SSE 9 13 5 7 1021.4 1021.4 9.2
20/04:00pm 14.6 12.8 13.3 92 0.7 S 15 20 8 11 1021.4 1021.4 7.2
20/03:57pm 14.7 13.3 13.4 92 0.7 S 13 19 7 10 1021.5 1021.5 7.2
20/03:56pm 14.8 13.4 13.5 92 0.7 S 13 19 7 10 1021.5 1021.5 7.2
20/03:32pm 14.8 13.7 13.2 90 0.9 S 11 17 6 9 1021.6 1021.6 5.6
20/03:30pm 14.7 13.6 13.1 90 0.9 S 11 17 6 9 1021.7 1021.7 5.4
20/03:21pm 14.8 12.6 13.2 90 0.9 S 17 24 9 13 1021.5 1021.5 5.4
20/03:00pm 15.0 12.1 13.0 88 1.1 SSE 20 33 11 18 1021.4 1021.4 4.8
20/02:46pm 14.8 12.4 12.8 88 1.1 S 17 28 9 15 1021.5 1021.5 4.2
20/02:40pm 15.5 13.9 13.9 90 0.9 S 15 22 8 12 1021.4 1021.4 4.0
20/02:30pm 14.7 12.9 13.4 92 0.7 S 15 20 8 11 1021.3 1021.3 3.8
20/02:18pm 14.7 11.5 13.1 90 0.9 S 22 33 12 18 1021.1 1021.1 3.6
20/02:16pm 14.8 11.2 13.0 89 1.0 S 24 37 13 20 1021.2 1021.2 3.4
20/02:00pm 15.3 11.2 12.8 85 1.4 S 26 33 14 18 1021.2 1021.2 3.0
20/01:37pm 15.8 11.5 13.1 84 1.5 SSE 28 46 15 25 1020.7 1020.7 3.0
20/01:30pm 15.8 10.4 12.9 83 1.6 SSE 33 46 18 25 1020.7 1020.7 3.0
20/01:22pm 15.8 11.3 12.5 81 1.8 SSE 28 46 15 25 1020.9 1020.9 3.0
20/01:00pm 15.7 10.9 13.0 84 1.5 SSE 30 39 16 21 1020.9 1020.9 3.0
20/12:30pm 16.0 12.5 13.3 84 1.5 SSE 24 35 13 19 1020.9 1020.9 3.0
20/12:23pm 16.0 12.5 13.5 85 1.4 SSE 24 33 13 18 1021.0 1021.0 3.0
20/12:00pm 15.8 12.3 13.5 86 1.3 SSE 24 32 13 17 1021.0 1021.0 3.0
20/11:30am 15.8 10.9 13.8 88 1.1 SSE 32 44 17 24 1020.7 1020.7 3.0
20/11:00am 16.5 11.7 14.7 89 1.0 SSE 33 46 18 25 1020.7 1020.7 2.6
20/10:30am 16.9 12.9 15.2 90 1.0 SE 30 39 16 21 1020.5 1020.5 2.6
20/10:19am 17.0 13.4 15.3 90 1.0 SSE 28 39 15 21 1020.3 1020.3 2.4
20/10:16am 17.1 13.1 15.1 88 1.2 SSE 30 39 16 21 1020.3 1020.3 2.2
20/10:00am 19.6 20.5 18.4 93 0.7 SE 11 37 6 20 1020.3 1020.3 1.6
20/09:49am 20.0 22.0 18.8 93 0.8 NNW 6 9 3 5 1020.1 1020.1 1.4
20/09:44am 19.9 21.8 18.6 92 0.8 NNW 6 7 3 4 1020.1 1020.1 1.2
20/09:30am 19.9 23.0 18.7 93 0.7 CALM 0 0 0 0 1019.9 1019.9 0.8
20/09:10am 19.8 22.9 18.6 93 0.7 CALM 0 0 0 0 1019.7 1019.7 0.2
20/09:00am 19.7 22.7 18.5 93 0.7 CALM 0 6 0 3 1019.6 1019.6 8.6
20/08:30am 19.5 21.4 18.5 94 0.6 N 6 7 3 4 1019.2 1019.2 7.8
20/08:00am 19.2 20.8 18.2 94 0.6 N 7 9 4 5 1019.3 1019.3 7.0
20/07:30am 19.1 22.0 18.1 94 0.6 CALM 0 0 0 0 1019.1 1019.1 6.0
20/07:00am 19.0 21.8 18.0 94 0.6 CALM 0 0 0 0 1018.8 1018.8 4.4
20/06:30am 19.0 21.7 17.7 92 0.8 CALM 0 0 0 0 1018.6 1018.6 3.4
20/06:00am 18.9 21.5 17.4 91 0.9 CALM 0 0 0 0 1018.1 1018.1 2.6
20/05:30am 18.9 21.5 17.4 91 0.9 CALM 0 0 0 0 1018.0 1018.0 2.4
20/05:00am 18.8 20.3 17.5 92 0.8 SW 6 7 3 4 1017.7 1017.7 2.2
20/04:30am 19.0 20.2 17.3 90 1.0 WSW 7 13 4 7 1018.0 1018.0 1.6
20/04:00am 19.2 20.3 17.2 88 1.2 WSW 7 9 4 5 1017.9 1017.9 0.8
20/03:30am 19.3 21.8 17.3 88 1.2 CALM 0 0 0 0 1017.8 1017.8 0.4
20/03:00am 19.2 20.5 17.0 87 1.3 SSW 6 9 3 5 1017.9 1017.9 0.4
20/02:30am 19.7 20.9 16.9 84 1.7 S 6 7 3 4 1017.7 1017.7 0.0
20/02:00am 20.2 21.1 16.0 77 2.5 SSW 6 9 3 5 1017.7 1017.7 0.0
20/01:30am 20.9 21.2 15.9 73 3.0 ESE 9 11 5 6 1017.7 1017.7 0.0
20/01:00am 20.9 21.2 15.9 73 3.0 ESE 9 11 5 6 1017.7 1017.7 0.0
20/12:30am 20.4 21.0 15.8 75 2.7 SW 7 7 4 4 1018.3 1018.3 0.0
20/12:00am 21.2 21.3 15.5 70 3.4 SE 9 9 5 5 1018.6 1018.6 0.0
 
Date/Time
EDT
Temp
°C
App
Temp
°C
Dew
Point
°C
Rel
Hum
%
Delta-T
°C
Wind Press
QNH
hPa
Press
MSL
hPa
Rain since
9am
mm
Dir  Spd
km/h
Gust
km/h
Spd
kts
Gust
kts
19/11:30pm 21.6 22.0 15.2 67 3.8 ESE 7 9 4 5 1018.8 1018.8 0.0
19/11:00pm 21.8 21.8 15.2 66 3.9 SE 9 9 5 5 1019.0 1019.0 0.0
19/10:30pm 22.0 22.0 15.1 65 4.1 E 9 13 5 7 1019.0 1019.0 0.0
19/10:00pm 22.1 21.7 15.2 65 4.1 E 11 15 6 8 1019.1 1019.1 0.0
19/09:30pm 22.2 22.5 15.1 64 4.2 ENE 7 11 4 6 1019.1 1019.1 0.0
19/09:00pm 22.4 22.3 15.0 63 4.4 NE 9 13 5 7 1018.9 1018.9 0.0
19/08:30pm 22.8 22.3 14.9 61 4.7 ENE 11 17 6 9 1018.7 1018.7 0.0
19/08:00pm 23.1 22.0 14.4 58 5.1 ENE 13 17 7 9 1018.6 1018.6 0.0
19/07:30pm 23.4 22.6 14.1 56 5.5 NE 11 20 6 11 1018.3 1018.3 0.0
19/07:00pm 24.1 22.1 13.9 53 6.0 NE 17 24 9 13 1017.8 1017.8 0.0
19/06:30pm 24.8 23.3 14.3 52 6.2 ENE 15 30 8 16 1017.6 1017.6 0.0
19/06:00pm 25.4 22.8 13.9 49 6.8 ENE 20 30 11 16 1017.6 1017.6 0.0
19/05:30pm 26.7 23.7 13.8 45 7.6 NE 22 32 12 17 1017.6 1017.6 0.0
19/05:00pm 27.6 25.0 13.9 43 8.1 NE 20 30 11 16 1017.7 1017.7 0.0
19/04:30pm 27.6 24.9 13.5 41 8.3 ENE 20 37 11 20 1017.8 1017.8 0.0
19/04:00pm 27.8 24.4 13.7 42 8.4 ENE 24 30 13 16 1018.1 1018.1 0.0
19/03:30pm 28.2 24.8 13.7 41 8.6 ENE 24 33 13 18 1018.5 1018.5 0.0
19/03:00pm 28.0 25.3 13.5 41 8.6 NE 20 30 11 16 1019.0 1019.0 0.0
19/02:30pm 28.2 25.6 13.7 41 8.6 ENE 20 28 11 15 1019.6 1019.6 0.0
19/02:00pm 28.1 25.3 13.2 39 8.8 ENE 20 30 11 16 1020.2 1020.2 0.0
19/01:30pm 29.3 28.3 13.5 38 9.4 NNE 11 22 6 12 1020.5 1020.5 0.0
19/01:00pm 28.0 26.9 12.0 37 9.2 NNE 9 15 5 8 1021.1 1021.1 0.0
19/12:30pm 27.7 25.5 12.1 38 9.0 N 15 32 8 17 1021.7 1021.7 0.0
19/12:00pm 26.3 24.6 12.4 42 8.0 NNE 13 20 7 11 1022.2 1022.2 0.0
19/11:30am 24.9 23.1 12.2 45 7.3 NNW 13 20 7 11 1022.9 1022.9 0.0
19/11:00am 24.1 22.9 12.7 49 6.5 NW 11 20 6 11 1023.6 1023.6 0.0
19/10:30am 24.5 23.7 14.0 52 6.2 N 11 20 6 11 1024.1 1024.1 0.0
19/10:00am 22.5 20.8 12.4 52 5.7 NNW 13 20 7 11 1024.6 1024.6 0.0
19/09:30am 21.7 20.1 12.8 57 5.1 N 13 19 7 10 1024.9 1024.9 0.0
19/09:00am 20.3 18.7 12.8 62 4.2 NW 13 17 7 9 1025.2 1025.2 0.0
19/08:30am 19.3 17.8 13.0 67 3.6 N 13 17 7 9 1025.3 1025.3 0.0
19/08:00am 18.1 17.5 13.4 74 2.6 NNW 9 13 5 7 1025.4 1025.4 0.0
19/07:34am 16.4 17.7 14.1 86 1.3 CALM 0 0 0 0 1025.3 1025.3 0.0
19/07:30am 16.3 17.7 14.3 88 1.1 CALM 0 0 0 0 1025.2 1025.2 0.0
19/07:03am 14.4 15.5 13.6 95 0.4 CALM 0 0 0 0 1025.2 1025.2 0.0
19/07:02am 14.3 15.4 13.5 95 0.4 CALM 0 0 0 0 1025.2 1025.2 0.0
19/07:00am 14.1 15.1 13.3 95 0.4 CALM 0 0 0 0 1025.1 1025.1 0.0
19/06:45am 13.0 13.7 12.1 94 0.5 CALM 0 0 0 0 1024.9 1024.9 0.0
19/06:30am 12.6 13.2 11.8 95 0.4 CALM 0 0 0 0 1024.8 1024.8 0.0
19/06:00am 12.6 13.1 11.5 93 0.6 CALM 0 0 0 0 1024.6 1024.6 0.0
19/05:30am 12.8 13.3 11.7 93 0.6 CALM 0 0 0 0 1024.6 1024.6 0.0
19/05:00am 12.9 13.4 11.6 92 0.7 CALM 0 0 0 0 1024.5 1024.5 0.0
19/04:30am 13.3 14.0 12.2 93 0.6 CALM 0 0 0 0 1024.5 1024.5 0.0
19/04:00am 13.4 14.0 11.8 90 0.9 CALM 0 0 0 0 1024.6 1024.6 0.0
19/03:30am 14.1 14.9 12.7 91 0.8 CALM 0 0 0 0 1024.8 1024.8 0.0
19/03:00am 13.9 14.6 12.1 89 1.0 CALM 0 0 0 0 1025.0 1025.0 0.0
19/02:30am 14.1 14.8 12.1 88 1.1 CALM 0 0 0 0 1025.3 1025.3 0.0
19/02:00am 14.7 15.6 12.9 89 1.0 CALM 0 0 0 0 1025.5 1025.5 0.0
19/01:30am 15.1 16.1 13.1 88 1.1 CALM 0 0 0 0 1025.8 1025.8 0.0
19/01:00am 15.5 16.5 13.2 86 1.3 CALM 0 0 0 0 1026.1 1026.1 0.0
19/12:30am 15.7 16.0 12.3 80 1.9 NNE 2 6 1 3 1026.5 1026.5 0.0
19/12:00am 17.4 18.4 13.1 76 2.4 CALM 0 0 0 0 1026.6 1026.6 0.0
 
Date/Time
EDT
Temp
°C
App
Temp
°C
Dew
Point
°C
Rel
Hum
%
Delta-T
°C
Wind Press
QNH
hPa
Press
MSL
hPa
Rain since
9am
mm
Dir  Spd
km/h
Gust
km/h
Spd
kts
Gust
kts
18/11:30pm 18.7 18.8 14.0 74 2.7 N 6 7 3 4 1026.7 1026.7 0.0
18/11:00pm 18.7 19.5 13.6 72 2.9 N 2 7 1 4 1026.8 1026.8 0.0
18/10:30pm 19.2 18.6 13.6 70 3.2 N 9 15 5 8 1026.9 1026.9 0.0
18/10:00pm 19.7 18.2 14.1 70 3.2 NNE 15 22 8 12 1026.9 1026.9 0.0
18/09:30pm 19.8 17.9 14.2 70 3.2 NNE 17 32 9 17 1027.0 1027.0 0.0
18/09:00pm 20.1 17.8 14.2 69 3.4 NNE 19 33 10 18 1026.8 1026.8 0.0
18/08:30pm 20.2 17.0 14.3 69 3.4 NNE 24 35 13 19 1026.4 1026.4 0.0
18/08:00pm 20.3 17.4 14.0 67 3.6 NNE 22 32 12 17 1026.2 1026.2 0.0
18/07:30pm 20.5 17.1 13.7 65 3.9 NE 24 39 13 21 1025.8 1025.8 0.0
18/07:00pm 20.9 18.3 13.8 64 4.1 NE 20 32 11 17 1025.6 1025.6 0.0
18/06:30pm 21.5 17.6 13.4 60 4.7 NE 26 41 14 22 1025.4 1025.4 0.0
18/06:00pm 22.1 17.8 13.2 57 5.1 NE 28 44 15 24 1025.2 1025.2 0.0
18/05:30pm 22.5 18.1 13.0 55 5.4 NE 28 39 15 21 1025.0 1025.0 0.0
18/05:00pm 22.8 18.3 12.7 53 5.7 ENE 28 44 15 24 1024.9 1024.9 0.0
18/04:30pm 23.3 18.0 12.6 51 6.1 NE 32 43 17 23 1024.8 1024.8 0.0
18/04:00pm 23.7 19.3 13.0 51 6.1 ENE 28 39 15 21 1025.0 1025.0 0.0
18/03:30pm 23.8 19.5 13.1 51 6.2 ENE 28 39 15 21 1025.1 1025.1 0.0
18/03:00pm 23.7 19.4 13.3 52 6.0 NE 28 44 15 24 1025.4 1025.4 0.0
18/02:30pm 23.5 18.6 12.5 50 6.3 ENE 30 43 16 23 1025.6 1025.6 0.0
18/02:20pm 23.5 19.0 12.5 50 6.3 ENE 28 46 15 25 1025.8 1025.8 0.0
18/02:00pm 24.2 20.1 12.8 49 6.5 ENE 26 39 14 21 1025.9 1025.9 0.0
18/01:30pm 24.0 20.0 12.9 50 6.4 ENE 26 41 14 22 1026.1 1026.1 0.0
18/01:00pm 23.8 19.8 13.1 51 6.2 ENE 26 43 14 23 1026.5 1026.5 0.0
18/12:30pm 24.3 20.2 11.3 44 7.3 NE 24 35 13 19 1026.8 1026.8 0.0
18/12:00pm 24.2 20.7 12.2 47 6.8 NNE 22 32 12 17 1027.2 1027.2 0.0
18/11:30am 23.5 21.0 13.4 53 5.9 NE 19 30 10 16 1027.6 1027.6 0.0
18/11:00am 22.2 19.5 13.5 57 5.0 NE 20 33 11 18 1028.2 1028.2 0.0
18/10:30am 21.7 19.2 13.6 60 4.7 NNE 19 28 10 15 1028.4 1028.4 0.0
18/10:00am 21.9 19.7 13.3 58 4.9 NE 17 24 9 13 1028.5 1028.5 0.0
18/09:30am 21.3 18.7 13.2 60 4.6 NNE 19 28 10 15 1028.7 1028.7 0.0
18/09:00am 21.1 18.7 13.8 63 4.2 NNE 19 30 10 16 1028.8 1028.8 0.0
18/08:30am 19.9 20.3 14.7 72 3.0 W 6 9 3 5 1028.8 1028.8 0.0
18/08:00am 18.6 20.2 14.9 79 2.1 CALM 0 0 0 0 1028.6 1028.6 0.0
18/07:30am 17.0 18.4 14.3 84 1.5 CALM 0 0 0 0 1028.6 1028.6 0.0
18/07:00am 14.3 15.2 13.0 92 0.7 CALM 0 0 0 0 1028.3 1028.3 0.0
18/06:30am 13.4 14.0 12.0 91 0.8 CALM 0 0 0 0 1027.8 1027.8 0.0
18/06:00am 13.5 14.3 12.4 93 0.6 CALM 0 0 0 0 1027.4 1027.4 0.0
18/05:30am 12.9 13.4 11.5 91 0.7 CALM 0 0 0 0 1027.1 1027.1 0.0
18/05:00am 13.6 14.3 12.3 92 0.7 CALM 0 0 0 0 1026.8 1026.8 0.0
18/04:30am 14.1 14.9 12.5 90 0.9 CALM 0 0 0 0 1026.9 1026.9 0.0
18/04:00am 14.7 15.3 13.1 90 0.9 W 2 6 1 3 1027.1 1027.1 0.0
18/03:30am 14.9 15.7 13.6 92 0.7 WNW 2 7 1 4 1027.3 1027.3 0.0
18/03:00am 14.7 15.6 12.9 89 1.0 CALM 0 0 0 0 1027.5 1027.5 0.0
18/02:30am 15.6 16.8 13.8 89 1.0 CALM 0 0 0 0 1027.8 1027.8 0.0
18/02:00am 14.9 14.8 13.3 90 0.9 N 6 7 3 4 1027.9 1027.9 0.0
18/01:30am 14.8 15.6 12.7 87 1.2 CALM 0 0 0 0 1028.1 1028.1 0.0
18/01:00am 15.1 16.0 13.0 87 1.2 CALM 0 0 0 0 1028.5 1028.5 0.0
18/12:30am 15.4 16.5 13.4 88 1.1 CALM 0 0 0 0 1028.9 1028.9 0.0
18/12:00am 14.7 14.3 12.4 86 1.2 NNE 6 7 3 4 1029.0 1029.0 0.0
 
Date/Time
EDT
Temp
°C
App
Temp
°C
Dew
Point
°C
Rel
Hum
%
Delta-T
°C
Wind Press
QNH
hPa
Press
MSL
hPa
Rain since
9am
mm
Dir  Spd
km/h
Gust
km/h
Spd
kts
Gust
kts
17/11:30pm 16.1 17.0 12.8 81 1.8 CALM 0 0 0 0 1029.0 1029.0 0.0
17/11:00pm 17.8 18.0 13.1 74 2.6 NNE 4 7 2 4 1028.9 1028.9 0.0
17/10:30pm 18.4 19.2 13.7 74 2.7 NNE 2 7 1 4 1028.8 1028.8 0.0
17/10:00pm 18.8 18.7 13.9 73 2.8 NE 7 11 4 6 1028.6 1028.6 0.0
17/09:30pm 19.1 17.8 13.7 71 3.1 NE 13 24 7 13 1028.2 1028.2 0.0
17/09:00pm 19.2 17.5 13.6 70 3.2 NE 15 20 8 11 1027.9 1027.9 0.0
17/08:30pm 19.5 17.0 13.4 68 3.5 NE 19 26 10 14 1027.5 1027.5 0.0
17/08:00pm 19.6 17.3 13.1 66 3.7 NE 17 26 9 14 1027.2 1027.2 0.0
17/07:30pm 19.9 17.5 12.7 63 4.1 NE 17 28 9 15 1027.1 1027.1 0.0
17/07:00pm 20.4 17.8 12.1 59 4.6 ENE 17 22 9 12 1026.8 1026.8 0.0
17/06:30pm 20.9 17.9 12.1 57 4.9 NNE 19 30 10 16 1026.7 1026.7 0.0

Latest Capital City Observations: Canberra | Sydney | Melbourne | Brisbane | Adelaide | Perth | Hobart | Darwin

Other Formats:

Comma delimited format used in spreadsheet applications
http://www.bom.gov.au/fwo/IDN60901/IDN60901.94765.axf

JavaScript Object Notation format (JSON) in row-major order
http://www.bom.gov.au/fwo/IDN60901/IDN60901.94765.json